createdAt,value
2022-11-05T00:02:01.186Z,6.79
2022-11-05T00:04:46.710Z,6.79
2022-11-05T00:07:36.871Z,6.80
2022-11-05T00:10:09.624Z,6.80
2022-11-05T00:12:55.610Z,6.81
2022-11-05T00:15:41.074Z,6.81
2022-11-05T00:18:08.188Z,6.83
2022-11-05T00:20:35.221Z,6.83
2022-11-05T00:23:21.542Z,6.82
2022-11-05T00:25:59.028Z,6.81
2022-11-05T00:28:26.941Z,6.82
2022-11-05T00:30:54.689Z,6.82
2022-11-05T00:33:21.837Z,6.81
2022-11-05T00:35:48.854Z,6.82
2022-11-05T00:38:15.883Z,6.82
2022-11-05T00:40:42.955Z,6.82
2022-11-05T00:43:28.400Z,6.81
2022-11-05T00:45:55.531Z,6.81
2022-11-05T00:48:41.173Z,6.83
2022-11-05T00:51:08.318Z,6.83
2022-11-05T00:53:35.622Z,6.83
2022-11-05T00:56:02.819Z,6.83
2022-11-05T00:58:29.885Z,6.81
2022-11-05T01:00:58.042Z,6.83
2022-11-05T01:03:26.595Z,6.84
2022-11-05T01:05:55.546Z,6.88
2022-11-05T01:08:23.704Z,6.87
2022-11-05T01:10:52.256Z,6.88
2022-11-05T01:13:20.897Z,6.89
2022-11-05T01:15:48.481Z,6.87
2022-11-05T01:18:15.529Z,6.86
2022-11-05T01:20:42.631Z,6.85
2022-11-05T01:23:13.441Z,6.83
2022-11-05T01:25:43.926Z,6.81
2022-11-05T01:28:11.085Z,6.81
2022-11-05T01:30:38.367Z,6.83
2022-11-05T01:33:05.709Z,6.82
2022-11-05T01:35:32.864Z,6.80
2022-11-05T01:37:59.967Z,6.78
2022-11-05T01:40:27.070Z,6.78
2022-11-05T01:42:54.139Z,6.75
2022-11-05T01:45:23.121Z,6.75
2022-11-05T01:47:57.794Z,6.73
2022-11-05T01:50:30.643Z,6.69
2022-11-05T01:53:00.908Z,6.68
2022-11-05T01:55:30.001Z,6.67
2022-11-05T01:57:58.801Z,6.67
2022-11-05T02:00:25.860Z,6.65
2022-11-05T02:02:53.204Z,6.63
2022-11-05T02:05:20.812Z,6.61
2022-11-05T02:07:48.322Z,6.60
2022-11-05T02:10:17.909Z,6.61
2022-11-05T02:12:46.198Z,6.60
2022-11-05T02:15:14.726Z,6.57
2022-11-05T02:17:47.547Z,6.59
2022-11-05T02:20:23.763Z,6.59
2022-11-05T02:23:10.195Z,6.58
2022-11-05T02:25:49.779Z,6.57
2022-11-05T02:28:34.919Z,6.57
2022-11-05T02:31:17.059Z,6.55
2022-11-05T02:33:56.640Z,6.56
2022-11-05T02:36:26.506Z,6.59
2022-11-05T02:39:12.909Z,6.62
2022-11-05T02:41:52.275Z,6.63
2022-11-05T02:44:28.195Z,6.66
2022-11-05T02:46:55.284Z,6.71
2022-11-05T02:49:31.588Z,6.70
2022-11-05T02:52:02.246Z,6.67
2022-11-05T02:57:34.687Z,6.70
2022-11-05T03:00:04.111Z,6.71
2022-11-05T03:02:31.622Z,6.72
2022-11-05T03:04:59.415Z,6.71
2022-11-05T03:07:42.276Z,6.71
2022-11-05T03:10:21.900Z,6.71
2022-11-05T03:13:12.697Z,6.70
2022-11-05T03:15:39.946Z,6.69
2022-11-05T03:18:28.136Z,6.70
2022-11-05T03:21:01.415Z,6.69
2022-11-05T03:23:34.434Z,6.66
2022-11-05T03:26:30.904Z,6.64
2022-11-05T03:29:21.407Z,6.64
2022-11-05T03:31:49.942Z,6.63
2022-11-05T03:34:19.768Z,6.61
2022-11-05T03:36:50.779Z,6.59
2022-11-05T03:39:20.698Z,6.58
2022-11-05T03:41:50.001Z,6.57
2022-11-05T03:44:19.290Z,6.60
2022-11-05T03:46:49.404Z,6.60
2022-11-05T03:49:21.466Z,6.58
2022-11-05T03:51:52.026Z,6.53
2022-11-05T03:54:19.390Z,6.51
2022-11-05T03:56:54.915Z,6.48
2022-11-05T03:59:22.390Z,6.50
2022-11-05T04:01:49.886Z,6.51
2022-11-05T04:04:17.088Z,6.52
2022-11-05T04:07:02.515Z,6.56
2022-11-05T04:09:48.293Z,6.55
2022-11-05T04:12:34.423Z,6.57
2022-11-05T04:15:01.529Z,6.53
2022-11-05T04:17:28.618Z,6.51
2022-11-05T04:20:14.335Z,6.52
2022-11-05T04:23:00.225Z,6.56
2022-11-05T04:25:27.322Z,6.58
2022-11-05T04:27:58.150Z,6.60
2022-11-05T04:30:25.209Z,6.60
2022-11-05T04:32:58.110Z,6.59
2022-11-05T04:35:25.720Z,6.61
2022-11-05T04:37:53.000Z,6.61
2022-11-05T04:40:20.014Z,6.64
2022-11-05T04:42:47.155Z,6.62
2022-11-05T04:45:14.214Z,6.63
2022-11-05T04:47:41.327Z,6.62
2022-11-05T04:50:10.582Z,6.63
2022-11-05T04:52:37.810Z,6.65
2022-11-05T04:55:05.071Z,6.65
2022-11-05T04:57:32.096Z,6.63
2022-11-05T04:59:59.148Z,6.60
2022-11-05T05:02:26.264Z,6.61
2022-11-05T05:04:53.556Z,6.58
2022-11-05T05:07:20.608Z,6.54
2022-11-05T05:09:47.677Z,6.58
2022-11-05T05:12:14.737Z,6.57
2022-11-05T05:14:41.763Z,6.57
2022-11-05T05:17:08.767Z,6.58
2022-11-05T05:19:55.757Z,6.57
2022-11-05T05:22:22.753Z,6.54
2022-11-05T05:24:52.753Z,6.51
2022-11-05T05:27:20.459Z,6.53
2022-11-05T05:29:47.574Z,6.53
2022-11-05T05:32:14.807Z,6.54
2022-11-05T05:34:41.828Z,6.54
2022-11-05T05:37:08.935Z,6.54
2022-11-05T05:39:36.024Z,6.53
2022-11-05T05:42:03.114Z,6.52
2022-11-05T05:44:30.133Z,6.53
2022-11-05T05:46:57.195Z,6.52
2022-11-05T05:49:24.237Z,6.53
2022-11-05T05:51:51.333Z,6.53
2022-11-05T05:54:18.410Z,6.53
2022-11-05T05:56:45.778Z,6.53
2022-11-05T05:59:12.836Z,6.54
2022-11-05T06:01:40.076Z,6.54
2022-11-05T06:04:07.172Z,6.53
2022-11-05T06:06:34.182Z,6.55
2022-11-05T06:09:01.411Z,6.56
2022-11-05T06:11:28.485Z,6.56
2022-11-05T06:13:55.730Z,6.56
2022-11-05T06:16:22.752Z,6.57
2022-11-05T06:18:49.862Z,6.57
2022-11-05T06:21:17.735Z,6.57
2022-11-05T06:23:45.764Z,6.56
2022-11-05T06:26:13.953Z,6.57
2022-11-05T06:28:42.073Z,6.57
2022-11-05T06:31:12.433Z,6.58
2022-11-05T06:33:39.775Z,6.59
2022-11-05T06:36:07.164Z,6.60
2022-11-05T06:38:35.258Z,6.59
2022-11-05T06:41:07.256Z,6.59
2022-11-05T06:43:37.516Z,6.57
2022-11-05T06:46:04.912Z,6.58
2022-11-05T06:48:31.994Z,6.58
2022-11-05T06:50:59.108Z,6.59
2022-11-05T06:53:26.184Z,6.60
2022-11-05T06:55:53.300Z,6.61
2022-11-05T06:58:20.670Z,6.62
2022-11-05T07:00:47.786Z,6.63
2022-11-05T07:03:15.225Z,6.63
2022-11-05T07:05:45.109Z,6.66
2022-11-05T07:08:12.165Z,6.66
2022-11-05T07:10:39.232Z,6.69
2022-11-05T07:13:08.391Z,6.71
2022-11-05T07:15:36.774Z,6.72
2022-11-05T07:18:04.085Z,6.73
2022-11-05T07:20:34.196Z,6.74
2022-11-05T07:23:02.789Z,6.77
2022-11-05T07:25:31.090Z,6.79
2022-11-05T07:27:58.118Z,6.81
2022-11-05T07:30:25.200Z,6.83
2022-11-05T07:32:52.344Z,6.83
2022-11-05T07:35:19.401Z,6.86
2022-11-05T07:37:47.518Z,6.87
2022-11-05T07:40:15.927Z,6.88
2022-11-05T07:42:43.697Z,6.89
2022-11-05T07:45:11.444Z,6.91
2022-11-05T07:47:39.526Z,6.93
2022-11-05T07:50:08.121Z,6.94
2022-11-05T07:52:35.270Z,6.95
2022-11-05T07:55:02.343Z,6.99
2022-11-05T07:57:29.402Z,7.01
2022-11-05T07:59:56.417Z,7.03
2022-11-05T08:02:23.755Z,7.04
2022-11-05T08:04:50.909Z,7.06
2022-11-05T08:07:17.919Z,7.07
2022-11-05T08:09:44.961Z,7.08
2022-11-05T08:12:12.030Z,7.10
2022-11-05T08:14:39.107Z,7.11
2022-11-05T08:17:06.153Z,7.12
2022-11-05T08:19:33.186Z,7.15
2022-11-05T08:22:00.203Z,7.13
2022-11-05T08:24:27.286Z,7.13
2022-11-05T08:26:54.398Z,7.15
2022-11-05T08:29:21.532Z,7.15
2022-11-05T08:31:48.586Z,7.17
2022-11-05T08:34:15.663Z,7.19
2022-11-05T08:36:46.435Z,7.24
2022-11-05T08:39:16.933Z,7.29
2022-11-05T08:41:44.503Z,7.35
2022-11-05T08:44:11.644Z,7.37
2022-11-05T08:46:41.560Z,7.40
2022-11-05T08:49:08.804Z,7.44
2022-11-05T08:51:35.912Z,7.47
2022-11-05T08:54:02.947Z,7.52
2022-11-05T08:56:30.000Z,7.55
2022-11-05T08:58:57.114Z,7.56
2022-11-05T09:01:26.096Z,7.60
2022-11-05T09:03:53.230Z,7.64
2022-11-05T09:06:20.397Z,7.63
2022-11-05T09:08:47.503Z,7.67
2022-11-05T09:11:14.578Z,7.77
2022-11-05T09:13:41.619Z,8.02
2022-11-05T09:16:15.518Z,8.13
2022-11-05T09:18:42.614Z,8.29
2022-11-05T09:21:09.769Z,8.46
2022-11-05T09:23:36.830Z,8.69
2022-11-05T09:26:03.929Z,8.81
2022-11-05T09:28:32.335Z,8.87
2022-11-05T09:31:00.560Z,9.06
2022-11-05T09:33:28.146Z,9.25
2022-11-05T09:35:55.265Z,9.42
2022-11-05T09:38:22.370Z,9.44
2022-11-05T09:40:59.747Z,9.38
2022-11-05T09:43:31.888Z,9.37
2022-11-05T09:46:00.565Z,9.33
2022-11-05T09:48:29.446Z,9.24
2022-11-05T09:50:58.170Z,9.16
2022-11-05T09:53:25.470Z,9.14
2022-11-05T09:55:57.197Z,9.14
2022-11-05T09:58:40.932Z,9.22
2022-11-05T10:01:12.232Z,9.28
2022-11-05T10:03:44.041Z,9.23
2022-11-05T10:06:13.306Z,9.29
2022-11-05T10:08:42.936Z,9.19
2022-11-05T10:11:15.356Z,9.10
2022-11-05T10:13:45.534Z,9.04
2022-11-05T10:16:21.847Z,9.01
2022-11-05T10:18:52.562Z,8.94
2022-11-05T10:21:37.586Z,8.90
2022-11-05T10:24:13.473Z,8.93
2022-11-05T10:26:40.557Z,8.88
2022-11-05T10:29:07.721Z,8.91
2022-11-05T10:31:35.857Z,8.83
2022-11-05T10:34:06.267Z,8.83
2022-11-05T10:36:35.085Z,8.77
2022-11-05T10:39:09.628Z,8.81
2022-11-05T10:41:48.156Z,8.79
2022-11-05T10:44:34.112Z,8.76
2022-11-05T10:47:19.895Z,8.70
2022-11-05T10:49:55.887Z,8.71
2022-11-05T10:52:25.484Z,8.70
2022-11-05T10:54:53.953Z,8.68
2022-11-05T10:57:47.703Z,8.71
2022-11-05T11:00:21.644Z,8.73
2022-11-05T11:02:56.247Z,8.74
2022-11-05T11:05:23.318Z,8.72
2022-11-05T11:08:13.500Z,8.75
2022-11-05T11:10:42.294Z,8.75
2022-11-05T11:13:21.186Z,8.71
2022-11-05T11:15:50.935Z,8.72
2022-11-05T11:18:30.906Z,8.72
2022-11-05T11:21:05.553Z,8.71
2022-11-05T11:23:39.563Z,8.73
2022-11-05T11:26:07.692Z,8.76
2022-11-05T11:28:44.879Z,8.77
2022-11-05T11:31:16.821Z,8.79
2022-11-05T11:33:48.384Z,8.83
2022-11-05T11:36:17.467Z,8.89
2022-11-05T11:38:44.570Z,8.92
2022-11-05T11:41:11.563Z,8.95
2022-11-05T11:43:40.152Z,8.97
2022-11-05T11:46:16.526Z,9.02
2022-11-05T11:48:47.386Z,8.99
2022-11-05T11:51:20.762Z,8.87
2022-11-05T11:53:49.347Z,8.85
2022-11-05T11:56:20.414Z,8.87
2022-11-05T11:58:48.880Z,8.91
2022-11-05T12:01:21.754Z,8.95
2022-11-05T12:03:48.828Z,8.96
2022-11-05T12:06:39.330Z,8.95
2022-11-05T12:09:28.031Z,8.94
2022-11-05T12:12:24.284Z,8.97
2022-11-05T12:14:58.362Z,8.91
2022-11-05T12:17:32.391Z,8.83
2022-11-05T12:20:11.546Z,8.80
2022-11-05T12:22:57.197Z,8.76
2022-11-05T12:25:27.119Z,8.64
2022-11-05T12:28:07.248Z,8.65
2022-11-05T12:30:46.681Z,8.56
2022-11-05T12:33:25.199Z,8.52
2022-11-05T12:35:57.557Z,8.46
2022-11-05T12:38:28.177Z,8.41
2022-11-05T12:41:05.412Z,8.45
2022-11-05T12:43:32.432Z,8.44
2022-11-05T12:46:09.662Z,8.47
2022-11-05T12:48:39.718Z,8.47
2022-11-05T12:51:09.587Z,8.51
2022-11-05T12:53:45.363Z,8.55
2022-11-05T12:56:26.088Z,8.59
2022-11-05T12:59:22.510Z,8.61
2022-11-05T13:01:51.937Z,8.66
2022-11-05T13:04:40.474Z,8.66
2022-11-05T13:07:10.327Z,8.67
2022-11-05T13:09:41.258Z,8.69
2022-11-05T13:12:10.904Z,8.69
2022-11-05T13:14:43.357Z,8.70
2022-11-05T13:17:16.217Z,8.67
2022-11-05T13:19:48.684Z,8.65
2022-11-05T13:22:22.021Z,8.65
2022-11-05T13:24:50.270Z,8.61
2022-11-05T13:27:32.629Z,8.52
2022-11-05T13:30:02.471Z,8.55
2022-11-05T13:32:37.782Z,8.54
2022-11-05T13:35:08.443Z,8.51
2022-11-05T13:37:55.694Z,8.48
2022-11-05T13:40:26.527Z,8.49
2022-11-05T13:43:05.340Z,8.46
2022-11-05T13:45:35.434Z,8.45
2022-11-05T13:48:02.450Z,8.44
2022-11-05T13:50:44.239Z,8.39
2022-11-05T13:53:36.257Z,8.37
2022-11-05T13:56:03.339Z,8.34
2022-11-05T13:58:33.136Z,8.33
2022-11-05T14:01:00.254Z,8.33
2022-11-05T14:03:27.950Z,8.30
2022-11-05T14:06:00.720Z,8.21
2022-11-05T14:08:29.214Z,8.17
2022-11-05T14:10:58.329Z,8.15
2022-11-05T14:13:27.873Z,8.05
2022-11-05T14:16:15.168Z,8.02
2022-11-05T14:18:42.198Z,7.93
2022-11-05T14:21:27.319Z,7.92
2022-11-05T14:23:55.388Z,7.95
2022-11-05T14:26:23.909Z,7.93
2022-11-05T14:29:03.125Z,7.96
2022-11-05T14:32:07.120Z,7.95
2022-11-05T14:34:41.930Z,7.90
2022-11-05T14:37:12.536Z,7.91
2022-11-05T14:39:40.126Z,7.85
2022-11-05T14:42:30.561Z,7.83
2022-11-05T14:45:03.224Z,7.81
2022-11-05T14:47:38.751Z,7.81
2022-11-05T14:50:18.299Z,7.80
2022-11-05T14:52:56.088Z,7.75
2022-11-05T14:55:48.558Z,7.75
2022-11-05T14:58:26.841Z,7.77
2022-11-05T15:00:54.349Z,7.77
2022-11-05T15:03:27.567Z,7.76
2022-11-05T15:06:04.199Z,7.76
2022-11-05T15:08:49.755Z,7.73
2022-11-05T15:11:25.771Z,7.69
2022-11-05T15:13:55.614Z,7.68
2022-11-05T15:16:24.532Z,7.69
2022-11-05T15:18:53.009Z,7.67
2022-11-05T15:21:20.580Z,7.66
2022-11-05T15:23:49.807Z,7.64
2022-11-05T15:26:19.675Z,7.66
2022-11-05T15:28:48.110Z,7.60
2022-11-05T15:31:15.159Z,7.59
2022-11-05T15:33:43.445Z,7.58
2022-11-05T15:36:15.938Z,7.61
2022-11-05T15:38:56.630Z,7.60
2022-11-05T15:41:34.670Z,7.59
2022-11-05T15:44:02.831Z,7.61
2022-11-05T15:46:30.139Z,7.62
2022-11-05T15:49:04.531Z,7.64
2022-11-05T15:51:31.682Z,7.61
2022-11-05T15:56:50.249Z,7.58
2022-11-05T15:59:20.950Z,7.67
2022-11-05T16:01:49.941Z,7.63
2022-11-05T16:04:19.190Z,7.59
2022-11-05T16:06:47.756Z,7.57
2022-11-05T16:09:34.763Z,7.57
2022-11-05T16:12:20.194Z,7.56
2022-11-05T16:14:57.378Z,7.57
2022-11-05T16:17:25.977Z,7.53
2022-11-05T16:19:53.675Z,7.45
2022-11-05T16:22:20.764Z,7.45
2022-11-05T16:24:48.170Z,7.48
2022-11-05T16:27:24.109Z,7.47
2022-11-05T16:29:52.894Z,7.49
2022-11-05T16:32:30.844Z,7.47
2022-11-05T16:35:05.472Z,7.46
2022-11-05T16:37:37.469Z,7.43
2022-11-05T16:40:12.530Z,7.41
2022-11-05T16:42:40.293Z,7.45
2022-11-05T16:45:10.242Z,7.46
2022-11-05T16:47:37.444Z,7.49
2022-11-05T16:50:15.105Z,7.52
2022-11-05T16:52:42.382Z,7.53
2022-11-05T16:55:09.397Z,7.53
2022-11-05T16:57:36.622Z,7.51
2022-11-05T17:00:04.281Z,7.45
2022-11-05T17:02:31.455Z,7.45
2022-11-05T17:04:58.592Z,7.41
2022-11-05T17:07:25.631Z,7.42
2022-11-05T17:09:52.750Z,7.40
2022-11-05T17:12:19.776Z,7.36
2022-11-05T17:14:46.839Z,7.32
2022-11-05T17:17:14.073Z,7.32
2022-11-05T17:19:42.445Z,7.29
2022-11-05T17:22:09.670Z,7.26
2022-11-05T17:24:36.752Z,7.25
2022-11-05T17:27:03.792Z,7.22
2022-11-05T17:29:30.878Z,7.23
2022-11-05T17:31:57.933Z,7.21
2022-11-05T17:34:25.009Z,7.23
2022-11-05T17:36:52.033Z,7.24
2022-11-05T17:39:19.084Z,7.25
2022-11-05T17:41:46.244Z,7.27
2022-11-05T17:44:13.300Z,7.30
2022-11-05T17:46:40.327Z,7.29
2022-11-05T17:49:08.326Z,7.28
2022-11-05T17:51:35.348Z,7.28
2022-11-05T17:54:02.507Z,7.26
2022-11-05T17:56:34.948Z,7.26
2022-11-05T17:59:03.473Z,7.25
2022-11-05T18:01:32.184Z,7.24
2022-11-05T18:04:03.772Z,7.23
2022-11-05T18:06:35.843Z,7.27
2022-11-05T18:09:03.779Z,7.27
2022-11-05T18:11:31.446Z,7.28
2022-11-05T18:13:58.884Z,7.29
2022-11-05T18:16:25.957Z,7.28
2022-11-05T18:18:53.007Z,7.27
2022-11-05T18:21:20.056Z,7.27
2022-11-05T18:23:47.108Z,7.27
2022-11-05T18:26:15.318Z,7.26
2022-11-05T18:28:42.616Z,7.24
2022-11-05T18:31:17.865Z,7.25
2022-11-05T18:33:45.547Z,7.25
2022-11-05T18:36:19.862Z,7.26
2022-11-05T18:38:47.418Z,7.27
2022-11-05T18:41:14.943Z,7.26
2022-11-05T18:43:42.037Z,7.24
2022-11-05T18:46:23.799Z,7.24
2022-11-05T18:48:58.199Z,7.21
2022-11-05T18:51:25.598Z,7.20
2022-11-05T18:53:53.463Z,7.20
2022-11-05T18:56:20.495Z,7.20
2022-11-05T18:58:47.762Z,7.16
2022-11-05T19:01:16.853Z,7.12
2022-11-05T19:03:44.123Z,7.09
2022-11-05T19:06:11.589Z,7.06
2022-11-05T19:08:38.697Z,7.03
2022-11-05T19:11:09.816Z,7.03
2022-11-05T19:13:37.092Z,7.02
2022-11-05T19:16:11.480Z,7.04
2022-11-05T19:18:38.593Z,7.01
2022-11-05T19:21:13.429Z,6.97
2022-11-05T19:23:40.582Z,6.98
2022-11-05T19:26:08.569Z,6.94
2022-11-05T19:28:35.925Z,6.92
2022-11-05T19:31:03.661Z,6.91
2022-11-05T19:33:31.198Z,6.93
2022-11-05T19:35:58.288Z,6.93
2022-11-05T19:38:29.103Z,6.92
2022-11-05T19:40:56.179Z,6.92
2022-11-05T19:43:23.480Z,6.94
2022-11-05T19:45:50.505Z,6.92
2022-11-05T19:48:19.839Z,6.90
2022-11-05T19:50:47.342Z,6.88
2022-11-05T19:53:14.369Z,6.85
2022-11-05T19:55:41.626Z,6.84
2022-11-05T19:58:10.019Z,6.80
2022-11-05T20:00:38.201Z,6.77
2022-11-05T20:03:05.442Z,6.75
2022-11-05T20:05:32.968Z,6.74
2022-11-05T20:08:00.266Z,6.74
2022-11-05T20:10:27.331Z,6.74
2022-11-05T20:12:54.350Z,6.68
2022-11-05T20:15:21.526Z,6.64
2022-11-05T20:17:49.965Z,6.63
2022-11-05T20:20:17.427Z,6.61
2022-11-05T20:22:45.036Z,6.57
2022-11-05T20:25:12.315Z,6.57
2022-11-05T20:27:39.526Z,6.63
2022-11-05T20:30:07.113Z,6.66
2022-11-05T20:32:34.188Z,6.70
2022-11-05T20:35:01.227Z,6.72
2022-11-05T20:37:28.428Z,6.72
2022-11-05T20:39:55.607Z,6.72
2022-11-05T20:42:22.661Z,6.75
2022-11-05T20:44:49.709Z,6.74
2022-11-05T20:47:16.821Z,6.75
2022-11-05T20:50:11.604Z,6.75
2022-11-05T20:52:38.984Z,6.76
2022-11-05T20:55:09.023Z,6.76
2022-11-05T20:57:36.753Z,6.73
2022-11-05T21:00:07.128Z,6.68
2022-11-05T21:02:35.082Z,6.65
2022-11-05T21:05:02.418Z,6.66
2022-11-05T21:07:29.526Z,6.63
2022-11-05T21:09:56.614Z,6.61
2022-11-05T21:12:23.715Z,6.62
2022-11-05T21:14:51.612Z,6.61
2022-11-05T21:17:44.868Z,6.62
2022-11-05T21:20:12.437Z,6.62
2022-11-05T21:22:43.027Z,6.57
2022-11-05T21:25:10.100Z,6.52
2022-11-05T21:27:43.575Z,6.50
2022-11-05T21:30:12.212Z,6.45
2022-11-05T21:32:39.275Z,6.43
2022-11-05T21:35:31.333Z,6.41
2022-11-05T21:37:58.420Z,6.37
2022-11-05T21:40:25.934Z,6.35
2022-11-05T21:42:53.039Z,6.31
2022-11-05T21:45:20.135Z,6.30
2022-11-05T21:47:47.242Z,6.30
2022-11-05T21:50:19.454Z,6.28
2022-11-05T21:53:07.641Z,6.30
2022-11-05T21:55:53.526Z,6.29
2022-11-05T21:58:42.430Z,6.25
2022-11-05T22:01:09.565Z,6.24
2022-11-05T22:03:36.678Z,6.21
2022-11-05T22:06:03.857Z,6.21
2022-11-05T22:08:30.947Z,6.19
2022-11-05T22:10:58.106Z,6.17
2022-11-05T22:13:27.333Z,6.14
2022-11-05T22:15:55.548Z,6.16
2022-11-05T22:18:22.890Z,6.16
2022-11-05T22:20:50.114Z,6.13
2022-11-05T22:23:17.267Z,6.11
2022-11-05T22:25:44.429Z,6.09
2022-11-05T22:28:11.949Z,6.05
2022-11-05T22:30:39.232Z,6.05
2022-11-05T22:33:06.299Z,6.00
2022-11-05T22:35:33.362Z,6.01
2022-11-05T22:38:00.408Z,6.01
2022-11-05T22:40:27.471Z,6.00
2022-11-05T22:42:54.535Z,5.96
2022-11-05T22:45:21.642Z,5.94
2022-11-05T22:47:51.820Z,5.88
2022-11-05T22:50:19.151Z,5.83
2022-11-05T22:52:46.244Z,5.79
2022-11-05T22:55:13.406Z,5.77
2022-11-05T22:57:40.941Z,5.78
2022-11-05T23:00:13.082Z,5.75
2022-11-05T23:02:40.368Z,5.73
2022-11-05T23:05:07.726Z,5.69
2022-11-05T23:07:53.775Z,5.69
2022-11-05T23:10:39.711Z,5.62
2022-11-05T23:13:07.994Z,5.54
2022-11-05T23:16:04.575Z,5.46
2022-11-05T23:18:51.302Z,5.52
2022-11-05T23:21:37.340Z,5.49
2022-11-05T23:24:56.514Z,5.41
2022-11-05T23:27:23.962Z,5.35
2022-11-05T23:29:51.026Z,5.29
2022-11-05T23:32:24.216Z,5.20
2022-11-05T23:34:52.099Z,5.14
2022-11-05T23:37:38.528Z,5.09
2022-11-05T23:40:07.142Z,5.05
2022-11-05T23:42:53.423Z,5.02
2022-11-05T23:45:39.420Z,5.04
2022-11-05T23:48:16.600Z,5.03
2022-11-05T23:50:50.952Z,5.05
2022-11-05T23:53:18.452Z,5.04
2022-11-05T23:55:45.514Z,5.04
2022-11-05T23:58:12.966Z,5.05
